createdAt,value
2022-08-18T00:01:15.912Z,13.15
2022-08-18T00:03:57.249Z,12.57
2022-08-18T00:06:30.247Z,13.43
2022-08-18T00:09:00.987Z,12.55
2022-08-18T00:11:41.726Z,12.52
2022-08-18T00:14:19.343Z,11.68
2022-08-18T00:16:52.818Z,12.68
2022-08-18T00:19:47.093Z,14.30
2022-08-18T00:22:14.671Z,11.90
2022-08-18T00:24:48.163Z,13.98
2022-08-18T00:27:26.146Z,13.82
2022-08-18T00:29:59.133Z,12.15
2022-08-18T00:32:30.521Z,12.02
2022-08-18T00:35:00.119Z,14.20
2022-08-18T00:37:29.792Z,14.02
2022-08-18T00:39:59.433Z,14.07
2022-08-18T00:42:32.190Z,12.63
2022-08-18T00:45:03.459Z,13.77
2022-08-18T00:47:43.089Z,12.55
2022-08-18T00:50:15.745Z,12.90
2022-08-18T00:52:50.974Z,12.45
2022-08-18T00:55:20.791Z,12.32
2022-08-18T00:57:55.042Z,14.73
2022-08-18T01:00:24.674Z,12.63
2022-08-18T01:02:56.174Z,13.15
2022-08-18T01:05:28.345Z,11.43
2022-08-18T01:07:58.155Z,13.20
2022-08-18T01:10:27.847Z,12.32
2022-08-18T01:13:00.817Z,12.27
2022-08-18T01:15:30.769Z,11.63
2022-08-18T01:18:13.487Z,11.80
2022-08-18T01:20:58.729Z,12.52
2022-08-18T01:23:30.934Z,12.20
2022-08-18T01:26:01.017Z,14.00
2022-08-18T01:28:30.753Z,12.02
2022-08-18T01:31:00.956Z,10.77
2022-08-18T01:33:32.582Z,12.20
2022-08-18T01:36:03.716Z,11.85
2022-08-18T01:38:35.922Z,10.93
2022-08-18T01:41:26.758Z,12.15
2022-08-18T01:43:57.174Z,10.77
2022-08-18T01:46:26.829Z,12.50
2022-08-18T01:48:58.689Z,11.27
2022-08-18T01:51:38.860Z,11.90
2022-08-18T01:54:13.576Z,11.98
2022-08-18T01:56:43.567Z,11.70
2022-08-18T01:59:15.179Z,13.60
2022-08-18T02:01:48.816Z,14.07
2022-08-18T02:04:35.117Z,12.95
2022-08-18T02:07:06.838Z,13.20
2022-08-18T02:12:09.158Z,12.98
2022-08-18T02:14:39.084Z,13.77
2022-08-18T02:17:10.111Z,11.87
2022-08-18T02:19:40.941Z,13.25
2022-08-18T02:24:42.740Z,12.35
2022-08-18T02:27:12.691Z,13.07
2022-08-18T02:29:42.305Z,13.50
2022-08-18T02:32:12.003Z,14.43
2022-08-18T02:34:42.802Z,14.23
2022-08-18T02:39:48.002Z,14.43
2022-08-18T02:42:17.658Z,15.35
2022-08-18T02:44:47.293Z,18.10
2022-08-18T02:47:16.917Z,14.82
2022-08-18T02:49:46.483Z,14.30
2022-08-18T02:52:16.833Z,16.33
2022-08-18T02:54:49.519Z,13.43
2022-08-18T02:57:19.405Z,12.70
2022-08-18T02:59:49.018Z,16.45
2022-08-18T03:02:20.257Z,14.70
2022-08-18T03:04:51.369Z,13.95
2022-08-18T03:07:21.070Z,14.73
2022-08-18T03:09:53.382Z,15.85
2022-08-18T03:12:23.159Z,13.35
2022-08-18T03:14:52.787Z,15.65
2022-08-18T03:17:22.442Z,14.77
2022-08-18T03:19:52.803Z,12.48
2022-08-18T03:22:28.401Z,12.57
2022-08-18T03:25:03.232Z,11.93
2022-08-18T03:27:33.228Z,13.15
2022-08-18T03:30:03.826Z,13.70
2022-08-18T03:32:33.512Z,15.90
2022-08-18T03:35:03.098Z,14.18
2022-08-18T03:37:33.601Z,15.65
2022-08-18T03:40:06.611Z,13.15
2022-08-18T03:42:36.231Z,13.88
2022-08-18T03:45:13.273Z,13.10
2022-08-18T03:47:51.980Z,14.40
2022-08-18T03:50:25.636Z,14.43
2022-08-18T03:52:55.453Z,14.60
2022-08-18T03:55:27.797Z,13.85
2022-08-18T03:58:02.868Z,14.43
2022-08-18T04:00:33.755Z,13.27
2022-08-18T04:08:06.727Z,15.00
2022-08-18T04:10:38.949Z,15.23
2022-08-18T04:13:08.899Z,16.40
2022-08-18T04:15:39.519Z,14.40
2022-08-18T04:18:10.067Z,14.25
2022-08-18T04:20:59.440Z,14.27
2022-08-18T04:23:29.737Z,15.77
2022-08-18T04:26:19.072Z,16.45
2022-08-18T04:28:49.262Z,15.90
2022-08-18T04:31:23.733Z,15.45
2022-08-18T04:33:53.369Z,14.13
2022-08-18T04:36:22.990Z,14.98
2022-08-18T04:38:52.764Z,15.07
2022-08-18T04:41:29.547Z,16.52
2022-08-18T04:44:00.053Z,16.27
2022-08-18T04:46:29.845Z,16.27
2022-08-18T04:49:01.347Z,16.83
2022-08-18T04:52:36.483Z,16.98
2022-08-18T04:54:19.290Z,17.90
2022-08-18T04:56:51.454Z,17.83
2022-08-18T04:59:21.062Z,19.60
2022-08-18T05:01:50.803Z,19.30
2022-08-18T05:04:20.567Z,20.58
2022-08-18T05:06:50.306Z,17.50
2022-08-18T05:09:22.770Z,17.30
2022-08-18T05:11:55.578Z,18.13
2022-08-18T05:14:25.212Z,19.92
2022-08-18T05:16:54.778Z,17.75
2022-08-18T05:19:26.866Z,18.92
2022-08-18T05:21:59.575Z,15.98
2022-08-18T05:24:36.896Z,17.10
2022-08-18T05:27:10.212Z,15.65
2022-08-18T05:29:41.864Z,17.42
2022-08-18T05:32:30.512Z,18.45
2022-08-18T05:35:07.467Z,16.30
2022-08-18T05:37:40.715Z,17.05
2022-08-18T05:40:11.802Z,16.13
2022-08-18T05:42:44.192Z,16.95
2022-08-18T05:45:16.272Z,15.82
2022-08-18T05:47:45.912Z,16.27
2022-08-18T05:50:20.469Z,18.40
2022-08-18T05:52:53.626Z,16.13
2022-08-18T05:55:38.044Z,18.27
2022-08-18T05:58:13.685Z,17.88
2022-08-18T06:00:43.240Z,18.02
2022-08-18T06:03:16.256Z,17.33
2022-08-18T06:05:50.175Z,18.23
2022-08-18T06:08:20.079Z,16.15
2022-08-18T06:10:51.362Z,17.05
2022-08-18T06:13:23.528Z,16.75
2022-08-18T06:15:55.714Z,16.10
2022-08-18T06:18:40.399Z,17.20
2022-08-18T06:21:38.770Z,16.02
2022-08-18T06:24:13.061Z,15.93
2022-08-18T06:26:45.272Z,18.27
2022-08-18T06:29:25.805Z,17.38
2022-08-18T06:31:58.754Z,18.33
2022-08-18T06:34:32.868Z,15.23
2022-08-18T06:37:04.570Z,16.77
2022-08-18T06:39:38.643Z,15.73
2022-08-18T06:42:08.465Z,14.63
2022-08-18T06:44:42.635Z,15.48
2022-08-18T06:47:15.527Z,15.82
2022-08-18T06:49:48.460Z,14.43
2022-08-18T06:52:25.584Z,13.40
2022-08-18T06:54:55.782Z,13.57
2022-08-18T06:57:28.051Z,14.93
2022-08-18T07:00:01.557Z,13.38
2022-08-18T07:02:45.084Z,16.80
2022-08-18T07:05:22.940Z,15.80
2022-08-18T07:08:10.513Z,15.07
2022-08-18T07:10:41.262Z,16.60
2022-08-18T07:13:22.383Z,15.07
2022-08-18T07:15:54.700Z,13.43
2022-08-18T07:18:26.389Z,16.42
2022-08-18T07:20:57.374Z,15.07
2022-08-18T07:23:29.570Z,14.38
2022-08-18T07:26:08.749Z,14.90
2022-08-18T07:28:39.886Z,14.93
2022-08-18T07:31:17.751Z,14.85
2022-08-18T07:33:51.459Z,13.77
2022-08-18T07:36:21.670Z,14.68
2022-08-18T07:38:54.601Z,14.07
2022-08-18T07:41:26.172Z,15.77
2022-08-18T07:44:01.878Z,16.98
2022-08-18T07:46:36.061Z,14.90
2022-08-18T07:49:06.488Z,15.35
2022-08-18T07:51:44.063Z,14.02
2022-08-18T07:54:47.268Z,14.50
2022-08-18T07:57:11.003Z,13.88
2022-08-18T07:59:44.770Z,14.85
2022-08-18T08:02:27.521Z,14.95
2022-08-18T08:05:02.804Z,15.32
2022-08-18T08:07:33.191Z,14.57
2022-08-18T08:10:23.427Z,15.25
2022-08-18T08:13:06.105Z,14.40
2022-08-18T08:15:42.225Z,15.55
2022-08-18T08:18:17.361Z,15.98
2022-08-18T08:20:49.031Z,14.65
2022-08-18T08:23:24.697Z,15.23
2022-08-18T08:29:35.949Z,15.43
2022-08-18T08:32:07.170Z,14.98
2022-08-18T08:34:42.519Z,15.23
2022-08-18T08:37:23.865Z,14.93
2022-08-18T08:39:57.934Z,15.45
2022-08-18T08:42:34.500Z,17.15
2022-08-18T08:45:09.658Z,16.27
2022-08-18T08:47:41.397Z,16.55
2022-08-18T08:53:35.818Z,15.65
2022-08-18T08:56:09.227Z,15.70
2022-08-18T08:58:56.452Z,13.88
2022-08-18T09:01:29.632Z,15.20
2022-08-18T09:04:00.565Z,16.27
2022-08-18T09:09:16.571Z,14.05
2022-08-18T09:11:57.059Z,14.90
2022-08-18T09:14:50.116Z,15.55
2022-08-18T09:17:34.201Z,17.35
2022-08-18T09:20:27.653Z,14.57
2022-08-18T09:23:01.905Z,16.55
2022-08-18T09:25:52.180Z,14.23
2022-08-18T09:28:23.460Z,15.02
2022-08-18T09:31:12.541Z,16.42
2022-08-18T09:33:53.585Z,15.40
2022-08-18T09:36:30.205Z,15.73
2022-08-18T09:39:13.285Z,15.43
2022-08-18T09:41:52.579Z,15.32
2022-08-18T09:44:52.414Z,15.48
2022-08-18T09:47:51.817Z,14.02
2022-08-18T09:50:38.946Z,13.90
2022-08-18T09:53:19.838Z,14.70
2022-08-18T09:56:04.812Z,13.95
2022-08-18T09:58:58.765Z,14.10
2022-08-18T10:01:40.173Z,14.40
2022-08-18T10:04:48.510Z,15.00
2022-08-18T10:07:38.843Z,15.45
2022-08-18T10:13:18.253Z,16.65
2022-08-18T10:16:10.219Z,15.52
2022-08-18T10:18:56.081Z,18.25
2022-08-18T10:21:31.172Z,17.77
2022-08-18T10:24:29.840Z,17.30
2022-08-18T10:27:13.249Z,14.73
2022-08-18T10:29:56.793Z,15.40
2022-08-18T10:32:54.540Z,16.80
2022-08-18T10:35:59.114Z,16.40
2022-08-18T10:38:41.242Z,17.17
2022-08-18T10:41:27.219Z,15.77
2022-08-18T10:44:00.567Z,14.60
2022-08-18T10:46:33.151Z,17.92
2022-08-18T10:49:18.326Z,15.63
2022-08-18T10:51:59.971Z,14.98
2022-08-18T10:54:35.147Z,18.15
2022-08-18T10:57:23.152Z,14.68
2022-08-18T10:59:55.963Z,14.15
2022-08-18T11:02:41.171Z,16.80
2022-08-18T11:05:15.119Z,17.20
2022-08-18T11:07:46.883Z,14.82
2022-08-18T11:10:29.844Z,15.85
2022-08-18T11:13:07.516Z,17.85
2022-08-18T11:15:45.863Z,16.60
2022-08-18T11:18:24.283Z,17.17
2022-08-18T11:20:56.508Z,15.07
2022-08-18T11:23:26.317Z,15.65
2022-08-18T11:25:57.465Z,16.33
2022-08-18T11:28:31.761Z,16.13
2022-08-18T11:31:02.084Z,17.85
2022-08-18T11:33:37.671Z,15.38
2022-08-18T11:36:10.305Z,15.05
2022-08-18T11:38:42.078Z,16.20
2022-08-18T11:41:17.812Z,15.65
2022-08-18T11:43:48.023Z,17.17
2022-08-18T11:46:29.625Z,15.48
2022-08-18T11:49:01.379Z,16.88
2022-08-18T11:51:34.995Z,17.40
2022-08-18T11:54:05.803Z,17.10
2022-08-18T11:59:06.733Z,16.42
2022-08-18T12:01:42.140Z,14.18
2022-08-18T12:04:20.736Z,13.57
2022-08-18T12:07:06.191Z,14.52
2022-08-18T12:12:35.852Z,13.95
2022-08-18T12:15:10.493Z,13.70
2022-08-18T12:17:52.612Z,15.73
2022-08-18T12:20:22.825Z,16.60
2022-08-18T12:22:55.370Z,15.27
2022-08-18T12:25:25.963Z,15.25
2022-08-18T12:27:55.779Z,15.53
2022-08-18T12:30:25.419Z,15.68
2022-08-18T12:33:05.647Z,18.00
2022-08-18T12:35:41.796Z,19.20
2022-08-18T12:38:17.943Z,16.55
2022-08-18T12:40:47.862Z,17.73
2022-08-18T12:43:17.506Z,18.55
2022-08-18T12:45:47.124Z,19.20
2022-08-18T12:48:16.781Z,17.02
2022-08-18T12:50:54.369Z,17.83
2022-08-18T12:53:29.483Z,15.57
2022-08-18T12:56:10.665Z,18.45
2022-08-18T12:58:41.375Z,17.90
2022-08-18T13:01:11.077Z,18.60
2022-08-18T13:06:30.921Z,18.10
2022-08-18T13:09:03.175Z,17.48
2022-08-18T13:11:46.175Z,17.65
2022-08-18T13:14:16.150Z,17.95
2022-08-18T13:16:54.955Z,16.17
2022-08-18T13:19:24.764Z,18.38
2022-08-18T13:22:01.761Z,19.02
2022-08-18T13:24:35.798Z,19.83
2022-08-18T13:27:18.394Z,17.50
2022-08-18T13:29:52.736Z,17.48
2022-08-18T13:32:22.491Z,16.67
2022-08-18T13:34:52.135Z,16.45
2022-08-18T13:37:26.739Z,16.70
2022-08-18T13:40:00.280Z,16.35
2022-08-18T13:42:50.304Z,15.55
2022-08-18T13:45:26.221Z,15.50
2022-08-18T13:47:58.309Z,16.67
2022-08-18T13:50:29.822Z,16.65
2022-08-18T13:53:01.090Z,17.33
2022-08-18T13:55:33.360Z,17.98
2022-08-18T13:58:05.126Z,16.23
2022-08-18T14:00:47.466Z,19.00
2022-08-18T14:03:20.402Z,17.85
2022-08-18T14:06:02.962Z,16.42
2022-08-18T14:08:36.714Z,18.33
2022-08-18T14:11:12.601Z,17.85
2022-08-18T14:13:43.802Z,16.27
2022-08-18T14:16:18.779Z,17.48
2022-08-18T14:19:09.724Z,17.30
2022-08-18T14:21:53.670Z,16.35
2022-08-18T14:24:36.726Z,17.00
2022-08-18T14:27:09.248Z,15.82
2022-08-18T14:29:46.683Z,15.73
2022-08-18T14:32:18.059Z,17.85
2022-08-18T14:35:00.296Z,17.90
2022-08-18T14:37:30.783Z,19.52
2022-08-18T14:40:04.035Z,18.20
2022-08-18T14:45:34.084Z,20.30
2022-08-18T14:48:07.604Z,20.80
2022-08-18T14:50:48.962Z,20.05
2022-08-18T14:53:20.328Z,23.30
2022-08-18T14:55:52.182Z,21.23
2022-08-18T14:58:26.577Z,21.40
2022-08-18T15:00:56.587Z,20.55
2022-08-18T15:03:28.244Z,21.00
2022-08-18T15:06:04.489Z,22.20
2022-08-18T15:08:35.757Z,21.48
2022-08-18T15:13:46.575Z,17.73
2022-08-18T15:16:16.304Z,17.52
2022-08-18T15:18:46.320Z,16.80
2022-08-18T15:21:38.590Z,16.20
2022-08-18T15:24:21.697Z,17.40
2022-08-18T15:26:56.839Z,17.13
2022-08-18T15:29:30.965Z,14.93
2022-08-18T15:32:06.124Z,17.00
2022-08-18T15:34:46.392Z,14.55
2022-08-18T15:37:19.453Z,14.05
2022-08-18T15:39:51.823Z,13.07
2022-08-18T15:42:25.524Z,13.25
2022-08-18T15:44:59.715Z,13.20
2022-08-18T15:47:42.707Z,13.48
2022-08-18T15:50:25.295Z,13.05
2022-08-18T15:52:58.062Z,13.55
2022-08-18T15:55:29.823Z,12.43
2022-08-18T15:58:11.153Z,13.75
2022-08-18T16:00:46.666Z,14.55
2022-08-18T16:03:17.529Z,14.93
2022-08-18T16:05:52.504Z,12.63
2022-08-18T16:08:23.125Z,11.95
2022-08-18T16:10:52.871Z,15.23
2022-08-18T16:13:22.530Z,13.70
2022-08-18T16:15:54.683Z,14.10
2022-08-18T16:18:24.598Z,13.02
2022-08-18T16:20:56.618Z,12.90
2022-08-18T16:23:26.611Z,14.63
2022-08-18T16:25:56.362Z,14.73
2022-08-18T16:28:34.568Z,15.55
2022-08-18T16:31:07.773Z,14.10
2022-08-18T16:33:37.428Z,13.30
2022-08-18T16:36:08.006Z,12.55
2022-08-18T16:38:38.391Z,12.98
2022-08-18T16:41:13.578Z,12.70
2022-08-18T16:43:44.467Z,14.00
2022-08-18T16:46:18.008Z,13.43
2022-08-18T16:48:48.440Z,11.80
2022-08-18T16:51:18.872Z,14.20
2022-08-18T16:53:49.632Z,12.30
2022-08-18T16:56:21.361Z,12.32
2022-08-18T16:59:03.522Z,12.63
2022-08-18T17:01:50.789Z,12.60
2022-08-18T17:04:22.552Z,13.95
2022-08-18T17:06:52.595Z,15.10
2022-08-18T17:09:22.477Z,14.98
2022-08-18T17:11:52.521Z,14.90
2022-08-18T17:14:22.417Z,13.77
2022-08-18T17:16:55.412Z,14.40
2022-08-18T17:19:25.252Z,13.75
2022-08-18T17:21:54.872Z,15.07
2022-08-18T17:24:31.710Z,12.80
2022-08-18T17:27:21.191Z,14.75
2022-08-18T17:30:03.360Z,15.10
2022-08-18T17:32:40.567Z,14.70
2022-08-18T17:35:13.181Z,15.45
2022-08-18T17:37:43.798Z,16.10
2022-08-18T17:40:16.305Z,14.80
2022-08-18T17:42:47.225Z,15.65
2022-08-18T17:45:22.188Z,14.82
2022-08-18T17:47:57.539Z,16.33
2022-08-18T17:50:41.514Z,15.10
2022-08-18T17:53:11.874Z,14.40
2022-08-18T17:55:44.160Z,16.20
2022-08-18T17:58:18.648Z,15.82
2022-08-18T18:00:48.341Z,15.93
2022-08-18T18:03:20.543Z,15.93
2022-08-18T18:05:52.465Z,16.02
2022-08-18T18:08:22.184Z,17.02
2022-08-18T18:11:07.864Z,15.25
2022-08-18T18:13:40.477Z,14.20
2022-08-18T18:16:23.396Z,17.70
2022-08-18T18:19:02.832Z,15.30
2022-08-18T18:22:00.651Z,15.95
2022-08-18T18:24:31.554Z,14.80
2022-08-18T18:27:01.227Z,17.10
2022-08-18T18:29:38.105Z,15.07
2022-08-18T18:32:10.843Z,15.57
2022-08-18T18:34:46.938Z,15.98
2022-08-18T18:37:26.974Z,16.38
2022-08-18T18:40:00.329Z,16.63
2022-08-18T18:42:31.640Z,14.55
2022-08-18T18:45:02.509Z,16.40
2022-08-18T18:47:54.548Z,15.40
2022-08-18T18:50:31.114Z,15.25
2022-08-18T18:53:08.521Z,15.88
2022-08-18T18:55:40.252Z,15.20
2022-08-18T18:58:15.715Z,16.23
2022-08-18T19:00:54.173Z,14.95
2022-08-18T19:03:27.495Z,15.45
2022-08-18T19:06:10.039Z,15.02
2022-08-18T19:08:42.236Z,14.68
2022-08-18T19:11:18.053Z,16.25
2022-08-18T19:13:49.454Z,15.35
2022-08-18T20:35:41.131Z,18.27
2022-08-18T20:38:17.904Z,18.13
2022-08-18T20:40:48.481Z,17.30
2022-08-18T20:43:29.562Z,17.25
2022-08-18T20:46:21.111Z,17.23
2022-08-18T20:49:06.252Z,16.42
2022-08-18T20:51:42.818Z,17.83
2022-08-18T20:54:29.991Z,17.58
2022-08-18T20:57:02.331Z,15.73
2022-08-18T20:59:33.340Z,19.33
2022-08-18T21:02:04.614Z,17.55
2022-08-18T21:04:42.831Z,17.10
2022-08-18T21:07:35.879Z,16.63
2022-08-18T21:10:12.986Z,16.88
2022-08-18T21:12:52.057Z,16.42
2022-08-18T21:15:24.460Z,16.98
2022-08-18T21:18:00.543Z,15.90
2022-08-18T21:20:30.463Z,15.73
2022-08-18T21:23:08.406Z,17.53
2022-08-18T21:25:38.547Z,15.82
2022-08-18T21:28:08.463Z,15.93
2022-08-18T21:30:38.367Z,15.77
2022-08-18T21:33:21.253Z,18.07
2022-08-18T21:35:50.971Z,16.08
2022-08-18T21:38:32.726Z,15.88
2022-08-18T21:41:10.212Z,16.25
2022-08-18T21:43:49.246Z,16.50
2022-08-18T21:46:25.351Z,16.42
2022-08-18T21:48:56.584Z,16.48
2022-08-18T21:51:28.936Z,18.15
2022-08-18T21:54:01.522Z,15.85
2022-08-18T21:56:33.151Z,16.23
2022-08-18T21:59:11.808Z,18.58
2022-08-18T22:01:49.667Z,16.08
2022-08-18T22:04:24.363Z,16.60
2022-08-18T22:06:55.243Z,14.75
2022-08-18T22:12:39.638Z,16.27
2022-08-18T22:15:10.507Z,15.77
2022-08-18T22:20:53.777Z,17.73
2022-08-18T22:23:50.903Z,15.27
2022-08-18T22:26:26.711Z,15.40
2022-08-18T22:28:59.887Z,15.55
2022-08-18T22:31:30.994Z,15.20
2022-08-18T22:34:07.418Z,16.77
2022-08-18T22:36:40.055Z,17.55
2022-08-18T22:39:11.186Z,16.13
2022-08-18T22:41:46.314Z,15.32
2022-08-18T22:44:16.370Z,15.32
2022-08-18T22:46:46.219Z,16.13
2022-08-18T22:49:15.800Z,17.85
2022-08-18T22:51:45.486Z,16.15
2022-08-18T22:54:15.066Z,16.77
2022-08-18T22:56:54.092Z,16.50
2022-08-18T22:59:27.539Z,17.17
2022-08-18T23:01:58.310Z,18.58
2022-08-18T23:04:28.113Z,16.75
2022-08-18T23:06:59.083Z,16.30
2022-08-18T23:09:30.538Z,16.38
2022-08-18T23:12:05.230Z,19.25
2022-08-18T23:14:34.833Z,17.50
2022-08-18T23:17:05.325Z,16.77
2022-08-18T23:19:35.024Z,16.75
2022-08-18T23:22:05.082Z,17.13
2022-08-18T23:24:34.747Z,17.37
2022-08-18T23:27:08.805Z,17.77
2022-08-18T23:29:39.862Z,19.48
2022-08-18T23:32:09.901Z,19.33
2022-08-18T23:34:39.567Z,17.83
2022-08-18T23:37:09.715Z,17.60
2022-08-18T23:39:41.856Z,17.05
2022-08-18T23:42:16.586Z,17.15
2022-08-18T23:44:47.314Z,18.63
2022-08-18T23:47:21.160Z,17.95
2022-08-18T23:49:51.578Z,16.35
2022-08-18T23:52:21.417Z,20.55
2022-08-18T23:54:51.012Z,19.65
2022-08-18T23:57:23.167Z,18.52
2022-08-18T23:59:52.793Z,19.67
